sensor_id;sensor_type;location;lat;lon;timestamp;pressure;altitude;pressure_sealevel;temperature;humidity
66196;BME280;53000;45.182;5.736;2023-08-12T00:02:13;99583.13;;;28.79;38.27
66196;BME280;53000;45.182;5.736;2023-08-12T00:04:38;99569.78;;;28.75;38.79
66196;BME280;53000;45.182;5.736;2023-08-12T00:07:04;99569.78;;;28.70;38.58
66196;BME280;53000;45.182;5.736;2023-08-12T00:09:29;99567.28;;;28.74;38.61
66196;BME280;53000;45.182;5.736;2023-08-12T00:11:54;99578.41;;;28.74;38.69
66196;BME280;53000;45.182;5.736;2023-08-12T00:14:20;99571.72;;;28.70;38.73
66196;BME280;53000;45.182;5.736;2023-08-12T00:16:45;99577.03;;;28.71;38.87
66196;BME280;53000;45.182;5.736;2023-08-12T00:19:10;99576.19;;;28.71;39.39
66196;BME280;53000;45.182;5.736;2023-08-12T00:21:36;99574.50;;;28.70;38.71
66196;BME280;53000;45.182;5.736;2023-08-12T00:24:01;99575.38;;;28.65;38.72
66196;BME280;53000;45.182;5.736;2023-08-12T00:26:27;99583.75;;;28.60;39.06
66196;BME280;53000;45.182;5.736;2023-08-12T00:28:52;99585.94;;;28.48;39.07
66196;BME280;53000;45.182;5.736;2023-08-12T00:31:18;99575.09;;;28.31;39.69
66196;BME280;53000;45.182;5.736;2023-08-12T00:33:43;99584.56;;;28.25;40.06
66196;BME280;53000;45.182;5.736;2023-08-12T00:36:08;99574.00;;;28.17;39.97
66196;BME280;53000;45.182;5.736;2023-08-12T00:38:34;99582.91;;;28.13;40.98
66196;BME280;53000;45.182;5.736;2023-08-12T00:40:59;99579.56;;;28.01;40.20
66196;BME280;53000;45.182;5.736;2023-08-12T00:43:24;99580.66;;;27.95;41.65
66196;BME280;53000;45.182;5.736;2023-08-12T00:45:50;99592.91;;;27.89;41.43
66196;BME280;53000;45.182;5.736;2023-08-12T00:48:17;99584.28;;;27.85;41.57
66196;BME280;53000;45.182;5.736;2023-08-12T00:50:43;99578.66;;;27.80;41.68
66196;BME280;53000;45.182;5.736;2023-08-12T00:53:10;99575.63;;;27.77;41.62
66196;BME280;53000;45.182;5.736;2023-08-12T00:55:37;99579.78;;;27.74;40.75
66196;BME280;53000;45.182;5.736;2023-08-12T00:58:03;99580.91;;;27.73;41.47
66196;BME280;53000;45.182;5.736;2023-08-12T01:00:28;99582.56;;;27.74;41.43
66196;BME280;53000;45.182;5.736;2023-08-12T01:02:56;99582.28;;;27.70;41.79
66196;BME280;53000;45.182;5.736;2023-08-12T01:05:21;99582.00;;;27.67;41.66
66196;BME280;53000;45.182;5.736;2023-08-12T01:07:47;99590.59;;;27.65;41.62
66196;BME280;53000;45.182;5.736;2023-08-12T01:10:13;99585.88;;;27.61;41.49
66196;BME280;53000;45.182;5.736;2023-08-12T01:12:53;99579.47;;;27.55;40.98
66196;BME280;53000;45.182;5.736;2023-08-12T01:15:21;99586.69;;;27.56;41.25
66196;BME280;53000;45.182;5.736;2023-08-12T01:17:49;99572.78;;;27.51;41.92
66196;BME280;53000;45.182;5.736;2023-08-12T01:20:20;99564.69;;;27.34;40.91
66196;BME280;53000;45.182;5.736;2023-08-12T01:22:57;99583.31;;;27.39;41.47
66196;BME280;53000;45.182;5.736;2023-08-12T01:25:25;99576.38;;;27.36;41.51
66196;BME280;53000;45.182;5.736;2023-08-12T01:27:50;99576.63;;;27.35;41.99
66196;BME280;53000;45.182;5.736;2023-08-12T01:30:16;99573.03;;;27.34;42.56
66196;BME280;53000;45.182;5.736;2023-08-12T01:33:19;99569.13;;;27.30;41.57
66196;BME280;53000;45.182;5.736;2023-08-12T01:36:16;99579.38;;;27.24;42.78
66196;BME280;53000;45.182;5.736;2023-08-12T01:38:43;99589.31;;;27.20;42.32
66196;BME280;53000;45.182;5.736;2023-08-12T01:41:10;99590.13;;;27.16;42.71
66196;BME280;53000;45.182;5.736;2023-08-12T01:43:37;99589.00;;;27.11;42.25
66196;BME280;53000;45.182;5.736;2023-08-12T01:46:03;99585.09;;;27.07;42.50
66196;BME280;53000;45.182;5.736;2023-08-12T01:48:28;99584.00;;;27.08;41.95
66196;BME280;53000;45.182;5.736;2023-08-12T01:50:53;99578.97;;;27.05;42.90
66196;BME280;53000;45.182;5.736;2023-08-12T01:53:19;99577.56;;;27.03;43.07
66196;BME280;53000;45.182;5.736;2023-08-12T01:55:45;99582.63;;;27.06;42.69
66196;BME280;53000;45.182;5.736;2023-08-12T01:58:11;99582.03;;;27.04;42.52
66196;BME280;53000;45.182;5.736;2023-08-12T02:00:36;99577.56;;;27.03;43.07
66196;BME280;53000;45.182;5.736;2023-08-12T02:03:02;99588.13;;;27.01;42.93
66196;BME280;53000;45.182;5.736;2023-08-12T02:05:27;99583.41;;;27.01;42.42
66196;BME280;53000;45.182;5.736;2023-08-12T02:07:52;99581.16;;;26.98;43.71
66196;BME280;53000;45.182;5.736;2023-08-12T02:10:18;99581.16;;;26.98;43.17
66196;BME280;53000;45.182;5.736;2023-08-12T02:12:43;99581.44;;;26.97;43.22
66196;BME280;53000;45.182;5.736;2023-08-12T02:15:09;99567.28;;;26.93;42.82
66196;BME280;53000;45.182;5.736;2023-08-12T02:17:34;99580.03;;;26.94;43.45
66196;BME280;53000;45.182;5.736;2023-08-12T02:19:59;99571.41;;;26.90;43.09
66196;BME280;53000;45.182;5.736;2023-08-12T02:22:25;99575.31;;;26.89;43.71
66196;BME280;53000;45.182;5.736;2023-08-12T02:24:50;99576.38;;;26.88;42.67
66196;BME280;53000;45.182;5.736;2023-08-12T02:27:16;99581.16;;;26.93;43.27
66196;BME280;53000;45.182;5.736;2023-08-12T02:29:41;99579.47;;;26.92;43.20
66196;BME280;53000;45.182;5.736;2023-08-12T02:32:06;99581.16;;;26.93;43.53
66196;BME280;53000;45.182;5.736;2023-08-12T02:34:32;99576.69;;;26.92;43.08
66196;BME280;53000;45.182;5.736;2023-08-12T02:36:57;99583.63;;;26.89;43.45
66196;BME280;53000;45.182;5.736;2023-08-12T02:39:22;99578.59;;;26.86;43.22
66196;BME280;53000;45.182;5.736;2023-08-12T02:41:48;99578.00;;;26.79;43.45
66196;BME280;53000;45.182;5.736;2023-08-12T02:44:14;99582.69;;;26.73;43.46
66196;BME280;53000;45.182;5.736;2023-08-12T02:46:40;99577.13;;;26.68;44.55
66196;BME280;53000;45.182;5.736;2023-08-12T02:49:05;99574.28;;;26.58;44.32
66196;BME280;53000;45.182;5.736;2023-08-12T02:51:30;99575.97;;;26.59;44.69
66196;BME280;53000;45.182;5.736;2023-08-12T02:53:56;99583.47;;;26.59;45.57
66196;BME280;53000;45.182;5.736;2023-08-12T02:56:21;99581.16;;;26.56;45.22
66196;BME280;53000;45.182;5.736;2023-08-12T02:58:46;99577.00;;;26.53;45.37
66196;BME280;53000;45.182;5.736;2023-08-12T03:01:12;99569.47;;;26.48;45.18
66196;BME280;53000;45.182;5.736;2023-08-12T03:03:38;99581.16;;;26.50;45.87
66196;BME280;53000;45.182;5.736;2023-08-12T03:06:03;99579.44;;;26.44;45.77
66196;BME280;53000;45.182;5.736;2023-08-12T03:08:28;99575.53;;;26.40;46.10
66196;BME280;53000;45.182;5.736;2023-08-12T03:11:01;99575.78;;;26.39;45.70
66196;BME280;53000;45.182;5.736;2023-08-12T03:13:27;99580.75;;;26.37;46.01
66196;BME280;53000;45.182;5.736;2023-08-12T03:15:53;99576.31;;;26.36;45.76
66196;BME280;53000;45.182;5.736;2023-08-12T03:18:19;99575.19;;;26.31;46.43
66196;BME280;53000;45.182;5.736;2023-08-12T03:20:45;99577.13;;;26.31;46.47
66196;BME280;53000;45.182;5.736;2023-08-12T03:23:10;99579.84;;;26.26;47.35
66196;BME280;53000;45.182;5.736;2023-08-12T03:25:36;99566.75;;;26.16;47.82
66196;BME280;53000;45.182;5.736;2023-08-12T03:28:01;99569.16;;;26.07;47.27
66196;BME280;53000;45.182;5.736;2023-08-12T03:30:26;99575.81;;;26.06;47.46
66196;BME280;53000;45.182;5.736;2023-08-12T03:32:52;99578.53;;;26.01;46.86
66196;BME280;53000;45.182;5.736;2023-08-12T03:35:18;99573.50;;;25.98;46.75
66196;BME280;53000;45.182;5.736;2023-08-12T03:37:44;99570.44;;;25.95;47.44
66196;BME280;53000;45.182;5.736;2023-08-12T03:40:09;99575.47;;;25.98;46.84
66196;BME280;53000;45.182;5.736;2023-08-12T03:42:35;99580.97;;;25.93;46.92
66196;BME280;53000;45.182;5.736;2023-08-12T03:45:00;99583.06;;;25.85;48.11
66196;BME280;53000;45.182;5.736;2023-08-12T03:47:26;99574.13;;;25.78;47.19
66196;BME280;53000;45.182;5.736;2023-08-12T03:49:52;99571.91;;;25.75;46.81
66196;BME280;53000;45.182;5.736;2023-08-12T03:52:17;99573.81;;;25.75;47.44
66196;BME280;53000;45.182;5.736;2023-08-12T03:54:42;99570.44;;;25.67;47.52
66196;BME280;53000;45.182;5.736;2023-08-12T03:57:08;99571.72;;;25.60;47.60
66196;BME280;53000;45.182;5.736;2023-08-12T03:59:33;99569.75;;;25.55;47.18
66196;BME280;53000;45.182;5.736;2023-08-12T04:01:58;99561.13;;;25.52;47.52
66196;BME280;53000;45.182;5.736;2023-08-12T04:04:24;99566.13;;;25.55;47.53
66196;BME280;53000;45.182;5.736;2023-08-12T04:06:49;99566.66;;;25.52;47.83
66196;BME280;53000;45.182;5.736;2023-08-12T04:09:18;99568.91;;;25.55;47.54
66196;BME280;53000;45.182;5.736;2023-08-12T04:11:44;99561.41;;;25.55;47.63
66196;BME280;53000;45.182;5.736;2023-08-12T04:14:09;99563.38;;;25.55;47.95
66196;BME280;53000;45.182;5.736;2023-08-12T04:16:35;99562.25;;;25.56;47.88
66196;BME280;53000;45.182;5.736;2023-08-12T04:19:00;99562.00;;;25.57;48.13
66196;BME280;53000;45.182;5.736;2023-08-12T04:21:25;99562.25;;;25.56;48.17
66196;BME280;53000;45.182;5.736;2023-08-12T04:23:51;99564.19;;;25.55;47.92
66196;BME280;53000;45.182;5.736;2023-08-12T04:26:16;99566.66;;;25.52;48.67
66196;BME280;53000;45.182;5.736;2023-08-12T04:28:42;99558.28;;;25.46;48.11
66196;BME280;53000;45.182;5.736;2023-08-12T04:31:07;99561.63;;;25.48;48.54
66196;BME280;53000;45.182;5.736;2023-08-12T04:33:33;99560.59;;;25.55;48.14
66196;BME280;53000;45.182;5.736;2023-08-12T04:35:58;99553.06;;;25.50;48.02
66196;BME280;53000;45.182;5.736;2023-08-12T04:38:25;99555.31;;;25.53;48.46
66196;BME280;53000;45.182;5.736;2023-08-12T04:40:52;99545.22;;;25.42;48.90
66196;BME280;53000;45.182;5.736;2023-08-12T04:43:18;99558.59;;;25.50;48.48
66196;BME280;53000;45.182;5.736;2023-08-12T04:45:46;99553.31;;;25.48;48.18
66196;BME280;53000;45.182;5.736;2023-08-12T04:48:12;99564.97;;;25.50;48.53
66196;BME280;53000;45.182;5.736;2023-08-12T04:50:38;99558.59;;;25.50;48.42
66196;BME280;53000;45.182;5.736;2023-08-12T04:53:04;99546.38;;;25.46;48.36
66196;BME280;53000;45.182;5.736;2023-08-12T04:55:30;99560.56;;;25.49;47.84
66196;BME280;53000;45.182;5.736;2023-08-12T04:57:55;99558.34;;;25.52;47.72
66196;BME280;53000;45.182;5.736;2023-08-12T05:00:21;99550.81;;;25.47;48.13
66196;BME280;53000;45.182;5.736;2023-08-12T05:02:47;99564.41;;;25.48;48.49
66196;BME280;53000;45.182;5.736;2023-08-12T05:05:13;99561.06;;;25.46;48.42
66196;BME280;53000;45.182;5.736;2023-08-12T05:07:38;99557.19;;;25.47;48.72
66196;BME280;53000;45.182;5.736;2023-08-12T05:10:04;99568.53;;;25.46;48.79
66196;BME280;53000;45.182;5.736;2023-08-12T05:12:29;99568.53;;;25.46;47.90
66196;BME280;53000;45.182;5.736;2023-08-12T05:14:55;99565.53;;;25.47;48.65
66196;BME280;53000;45.182;5.736;2023-08-12T05:17:21;99563.00;;;25.46;48.11
66196;BME280;53000;45.182;5.736;2023-08-12T05:19:46;99561.31;;;25.45;48.59
66196;BME280;53000;45.182;5.736;2023-08-12T05:22:14;99559.66;;;25.44;48.05
66196;BME280;53000;45.182;5.736;2023-08-12T05:24:39;99554.63;;;25.41;48.17
66196;BME280;53000;45.182;5.736;2023-08-12T05:27:04;99557.66;;;25.39;48.76
66196;BME280;53000;45.182;5.736;2023-08-12T05:29:30;99562.03;;;25.35;48.07
66196;BME280;53000;45.182;5.736;2023-08-12T05:31:56;99565.06;;;25.34;48.36
66196;BME280;53000;45.182;5.736;2023-08-12T05:34:21;99561.97;;;25.30;48.33
66196;BME280;53000;45.182;5.736;2023-08-12T05:36:47;99564.00;;;25.35;48.09
66196;BME280;53000;45.182;5.736;2023-08-12T05:39:12;99562.84;;;25.30;48.39
66196;BME280;53000;45.182;5.736;2023-08-12T05:41:37;99576.22;;;25.39;47.86
66196;BME280;53000;45.182;5.736;2023-08-12T05:44:03;99554.78;;;25.29;48.19
66196;BME280;53000;45.182;5.736;2023-08-12T05:46:29;99573.19;;;25.40;48.42
66196;BME280;53000;45.182;5.736;2023-08-12T05:48:54;99568.78;;;25.44;48.79
66196;BME280;53000;45.182;5.736;2023-08-12T05:51:20;99571.88;;;25.48;48.29
66196;BME280;53000;45.182;5.736;2023-08-12T05:53:45;99583.31;;;25.52;48.59
66196;BME280;53000;45.182;5.736;2023-08-12T05:56:10;99575.75;;;25.47;48.86
66196;BME280;53000;45.182;5.736;2023-08-12T05:58:36;99587.19;;;25.56;48.88
66196;BME280;53000;45.182;5.736;2023-08-12T06:01:01;99584.25;;;25.62;48.94
66196;BME280;53000;45.182;5.736;2023-08-12T06:03:27;99582.09;;;25.69;49.44
66196;BME280;53000;45.182;5.736;2023-08-12T06:05:52;99576.88;;;25.73;49.43
66196;BME280;53000;45.182;5.736;2023-08-12T06:08:18;99584.44;;;25.83;48.80
66196;BME280;53000;45.182;5.736;2023-08-12T06:10:43;99590.38;;;25.91;48.88
66196;BME280;53000;45.182;5.736;2023-08-12T06:13:09;99600.16;;;25.99;48.94
66196;BME280;53000;45.182;5.736;2023-08-12T06:15:34;99598.25;;;26.05;48.31
66196;BME280;53000;45.182;5.736;2023-08-12T06:18:01;99591.41;;;26.13;48.40
66196;BME280;53000;45.182;5.736;2023-08-12T06:20:26;99602.84;;;26.21;48.49
66196;BME280;53000;45.182;5.736;2023-08-12T06:22:52;99597.03;;;26.23;47.83
66196;BME280;53000;45.182;5.736;2023-08-12T06:25:18;99601.53;;;26.29;48.25
66196;BME280;53000;45.182;5.736;2023-08-12T06:27:45;99585.97;;;26.28;48.00
66196;BME280;53000;45.182;5.736;2023-08-12T06:30:11;99601.00;;;26.37;48.28
66196;BME280;53000;45.182;5.736;2023-08-12T06:32:37;99601.38;;;26.46;48.28
66196;BME280;53000;45.182;5.736;2023-08-12T06:35:02;99596.69;;;26.51;48.35
66196;BME280;53000;45.182;5.736;2023-08-12T06:37:28;99598.69;;;26.56;48.33
66196;BME280;53000;45.182;5.736;2023-08-12T06:39:53;99594.84;;;26.62;48.13
66196;BME280;53000;45.182;5.736;2023-08-12T06:42:20;99596.53;;;26.63;47.89
66196;BME280;53000;45.182;5.736;2023-08-12T06:44:45;99598.81;;;26.71;47.53
66196;BME280;53000;45.182;5.736;2023-08-12T06:47:11;99595.19;;;26.71;47.23
66196;BME280;53000;45.182;5.736;2023-08-12T06:49:36;99599.72;;;26.82;47.48
66196;BME280;53000;45.182;5.736;2023-08-12T06:52:01;99596.06;;;26.82;47.05
66196;BME280;53000;45.182;5.736;2023-08-12T06:54:27;99597.75;;;26.83;47.07
66196;BME280;53000;45.182;5.736;2023-08-12T06:56:52;99601.69;;;26.87;47.02
66196;BME280;53000;45.182;5.736;2023-08-12T06:59:18;99598.59;;;26.83;46.71
66196;BME280;53000;45.182;5.736;2023-08-12T07:01:43;99608.88;;;26.83;46.87
66196;BME280;53000;45.182;5.736;2023-08-12T07:04:08;99606.34;;;26.81;47.16
66196;BME280;53000;45.182;5.736;2023-08-12T07:06:34;99599.91;;;26.76;47.39
66196;BME280;53000;45.182;5.736;2023-08-12T07:08:59;99590.47;;;26.71;47.38
66196;BME280;53000;45.182;5.736;2023-08-12T07:11:25;99591.00;;;26.68;46.50
66196;BME280;53000;45.182;5.736;2023-08-12T07:13:50;99589.03;;;26.64;47.13
66196;BME280;53000;45.182;5.736;2023-08-12T07:16:15;99592.38;;;26.66;46.74
66196;BME280;53000;45.182;5.736;2023-08-12T07:18:41;99592.94;;;26.68;45.98
66196;BME280;53000;45.182;5.736;2023-08-12T07:21:06;99601.84;;;26.70;46.28
66196;BME280;53000;45.182;5.736;2023-08-12T07:23:32;99593.53;;;26.70;46.09
66196;BME280;53000;45.182;5.736;2023-08-12T07:25:57;99592.16;;;26.72;46.11
66196;BME280;53000;45.182;5.736;2023-08-12T07:28:23;99599.66;;;26.77;46.24
66196;BME280;53000;45.182;5.736;2023-08-12T07:30:48;99604.97;;;26.79;46.52
66196;BME280;53000;45.182;5.736;2023-08-12T07:33:14;99605.78;;;26.79;46.29
66196;BME280;53000;45.182;5.736;2023-08-12T07:35:40;99603.88;;;26.85;46.35
66196;BME280;53000;45.182;5.736;2023-08-12T07:38:06;99598.66;;;26.93;45.32
66196;BME280;53000;45.182;5.736;2023-08-12T07:40:31;99591.78;;;27.06;45.41
66196;BME280;53000;45.182;5.736;2023-08-12T07:42:57;99592.00;;;27.63;45.31
66196;BME280;53000;45.182;5.736;2023-08-12T07:45:22;99593.63;;;29.23;43.18
66196;BME280;53000;45.182;5.736;2023-08-12T07:47:49;99599.53;;;31.03;39.92
66196;BME280;53000;45.182;5.736;2023-08-12T07:50:14;99587.91;;;31.96;38.60
66196;BME280;53000;45.182;5.736;2023-08-12T07:52:40;99588.22;;;32.65;37.53
66196;BME280;53000;45.182;5.736;2023-08-12T07:55:06;99586.25;;;33.35;36.25
66196;BME280;53000;45.182;5.736;2023-08-12T07:57:31;99591.69;;;34.63;35.78
66196;BME280;53000;45.182;5.736;2023-08-12T07:59:56;99595.81;;;35.46;33.64
66196;BME280;53000;45.182;5.736;2023-08-12T08:02:22;99594.75;;;35.15;33.83
66196;BME280;53000;45.182;5.736;2023-08-12T08:04:47;99591.44;;;35.22;32.39
66196;BME280;53000;45.182;5.736;2023-08-12T08:07:15;99588.09;;;35.69;32.51
66196;BME280;53000;45.182;5.736;2023-08-12T08:09:41;99587.75;;;36.31;31.11
66196;BME280;53000;45.182;5.736;2023-08-12T08:12:07;99589.94;;;35.99;31.56
66196;BME280;53000;45.182;5.736;2023-08-12T08:14:33;99588.38;;;35.50;32.87
66196;BME280;53000;45.182;5.736;2023-08-12T08:16:58;99600.94;;;35.43;32.87
66196;BME280;53000;45.182;5.736;2023-08-12T08:19:23;99610.13;;;35.67;32.02
66196;BME280;53000;45.182;5.736;2023-08-12T08:21:49;99607.53;;;35.30;32.11
66196;BME280;53000;45.182;5.736;2023-08-12T08:24:14;99606.66;;;34.81;32.64
66196;BME280;53000;45.182;5.736;2023-08-12T08:26:39;99589.81;;;34.36;33.15
66196;BME280;53000;45.182;5.736;2023-08-12T08:29:06;99588.41;;;34.02;33.25
66196;BME280;53000;45.182;5.736;2023-08-12T08:31:31;99597.69;;;33.66;33.39
66196;BME280;53000;45.182;5.736;2023-08-12T08:33:56;99589.19;;;33.30;33.86
66196;BME280;53000;45.182;5.736;2023-08-12T08:36:22;99597.41;;;33.12;34.28
66196;BME280;53000;45.182;5.736;2023-08-12T08:38:48;99588.03;;;32.89;34.20
66196;BME280;53000;45.182;5.736;2023-08-12T08:41:16;99585.75;;;32.91;34.52
66196;BME280;53000;45.182;5.736;2023-08-12T08:43:42;99586.66;;;33.00;34.24
66196;BME280;53000;45.182;5.736;2023-08-12T08:46:10;99587.19;;;33.44;34.42
66196;BME280;53000;45.182;5.736;2023-08-12T08:48:38;99587.41;;;34.66;33.43
66196;BME280;53000;45.182;5.736;2023-08-12T08:51:05;99586.28;;;35.99;32.74
66196;BME280;53000;45.182;5.736;2023-08-12T08:53:30;99586.28;;;36.98;29.74
66196;BME280;53000;45.182;5.736;2023-08-12T08:55:56;99578.00;;;37.82;28.12
66196;BME280;53000;45.182;5.736;2023-08-12T08:58:21;99578.31;;;38.23;26.75
66196;BME280;53000;45.182;5.736;2023-08-12T09:00:47;99582.50;;;38.83;28.08
66196;BME280;53000;45.182;5.736;2023-08-12T09:03:13;99583.53;;;39.77;26.23
66196;BME280;53000;45.182;5.736;2023-08-12T09:05:40;99595.94;;;40.54;25.88
66196;BME280;53000;45.182;5.736;2023-08-12T09:08:07;99579.22;;;40.96;24.16
66196;BME280;53000;45.182;5.736;2023-08-12T09:10:38;99581.78;;;41.17;24.38
66196;BME280;53000;45.182;5.736;2023-08-12T09:13:06;99590.41;;;41.72;25.06
66196;BME280;53000;45.182;5.736;2023-08-12T09:15:32;99577.03;;;42.12;22.47
66196;BME280;53000;45.182;5.736;2023-08-12T09:17:57;99579.75;;;42.43;23.81
66196;BME280;53000;45.182;5.736;2023-08-12T09:20:23;99567.63;;;42.46;22.10
66196;BME280;53000;45.182;5.736;2023-08-12T09:22:58;99576.72;;;42.56;23.50
66196;BME280;53000;45.182;5.736;2023-08-12T09:25:27;99576.41;;;42.61;21.36
66196;BME280;53000;45.182;5.736;2023-08-12T09:28:03;99579.84;;;42.51;22.24
66196;BME280;53000;45.182;5.736;2023-08-12T09:30:30;99584.03;;;42.57;21.49
66196;BME280;53000;45.182;5.736;2023-08-12T09:33:02;99570.19;;;42.78;22.66
66196;BME280;53000;45.182;5.736;2023-08-12T09:35:40;99573.06;;;43.01;22.32
66196;BME280;53000;45.182;5.736;2023-08-12T09:38:07;99571.88;;;43.02;21.10
66196;BME280;53000;45.182;5.736;2023-08-12T09:40:35;99570.00;;;43.14;20.96
66196;BME280;53000;45.182;5.736;2023-08-12T09:43:01;99560.31;;;43.18;21.04
66196;BME280;53000;45.182;5.736;2023-08-12T09:45:27;99565.56;;;43.16;20.54
66196;BME280;53000;45.182;5.736;2023-08-12T09:47:54;99557.09;;;43.20;21.19
66196;BME280;53000;45.182;5.736;2023-08-12T09:50:23;99557.47;;;43.18;20.33
66196;BME280;53000;45.182;5.736;2023-08-12T09:52:51;99561.47;;;43.14;21.31
66196;BME280;53000;45.182;5.736;2023-08-12T09:55:17;99544.00;;;43.15;20.80
66196;BME280;53000;45.182;5.736;2023-08-12T09:57:44;99546.25;;;43.02;20.62
66196;BME280;53000;45.182;5.736;2023-08-12T10:00:13;99548.25;;;42.79;21.65
66196;BME280;53000;45.182;5.736;2023-08-12T10:02:43;99545.97;;;42.65;20.59
66196;BME280;53000;45.182;5.736;2023-08-12T10:05:11;99542.88;;;42.51;21.42
66196;BME280;53000;45.182;5.736;2023-08-12T10:07:37;99536.91;;;42.36;20.56
66196;BME280;53000;45.182;5.736;2023-08-12T10:10:04;99528.97;;;42.26;21.73
66196;BME280;53000;45.182;5.736;2023-08-12T10:12:30;99531.69;;;42.19;21.86
66196;BME280;53000;45.182;5.736;2023-08-12T10:14:56;99521.59;;;42.21;21.98
66196;BME280;53000;45.182;5.736;2023-08-12T10:17:22;99517.50;;;41.99;21.08
66196;BME280;53000;45.182;5.736;2023-08-12T10:19:48;99519.94;;;41.81;21.32
66196;BME280;53000;45.182;5.736;2023-08-12T10:22:14;99511.09;;;41.67;21.22
66196;BME280;53000;45.182;5.736;2023-08-12T10:24:42;99514.72;;;41.64;21.28
66196;BME280;53000;45.182;5.736;2023-08-12T10:27:08;99499.97;;;41.58;21.66
66196;BME280;53000;45.182;5.736;2023-08-12T10:29:34;99503.06;;;41.53;22.48
66196;BME280;53000;45.182;5.736;2023-08-12T10:32:02;99496.19;;;41.54;21.60
66196;BME280;53000;45.182;5.736;2023-08-12T10:34:27;99490.00;;;41.48;22.20
66196;BME280;53000;45.182;5.736;2023-08-12T10:36:54;99490.94;;;41.56;22.39
66196;BME280;53000;45.182;5.736;2023-08-12T10:39:27;99474.31;;;41.55;22.61
66196;BME280;53000;45.182;5.736;2023-08-12T10:41:57;99486.97;;;41.57;22.43
66196;BME280;53000;45.182;5.736;2023-08-12T10:44:50;99475.03;;;41.52;22.08
66196;BME280;53000;45.182;5.736;2023-08-12T10:47:19;99463.16;;;41.46;21.86
66196;BME280;53000;45.182;5.736;2023-08-12T10:49:51;99469.44;;;41.36;21.87
66196;BME280;53000;45.182;5.736;2023-08-12T10:52:36;99465.09;;;41.42;22.74
66196;BME280;53000;45.182;5.736;2023-08-12T10:55:24;99457.94;;;41.48;21.63
66196;BME280;53000;45.182;5.736;2023-08-12T10:57:51;99451.13;;;41.53;22.59
66196;BME280;53000;45.182;5.736;2023-08-12T11:00:23;99448.66;;;41.71;22.28
66196;BME280;53000;45.182;5.736;2023-08-12T11:02:51;99447.25;;;41.80;22.20
66196;BME280;53000;45.182;5.736;2023-08-12T11:05:18;99442.13;;;41.89;22.40
66196;BME280;53000;45.182;5.736;2023-08-12T11:10:33;99441.59;;;41.84;21.52
66196;BME280;53000;45.182;5.736;2023-08-12T11:13:00;99430.19;;;41.80;21.24
66196;BME280;53000;45.182;5.736;2023-08-12T11:18:10;99426.53;;;41.60;21.40
66196;BME280;53000;45.182;5.736;2023-08-12T11:20:38;99425.78;;;41.44;21.46
66196;BME280;53000;45.182;5.736;2023-08-12T11:23:05;99405.94;;;41.28;22.00
66196;BME280;53000;45.182;5.736;2023-08-12T11:25:32;99401.31;;;41.20;21.43
66196;BME280;53000;45.182;5.736;2023-08-12T11:27:58;99411.41;;;41.17;21.57
66196;BME280;53000;45.182;5.736;2023-08-12T11:30:24;99410.84;;;41.12;21.47
66196;BME280;53000;45.182;5.736;2023-08-12T11:32:52;99405.97;;;40.93;21.01
66196;BME280;53000;45.182;5.736;2023-08-12T11:35:19;99409.75;;;40.81;21.64
66196;BME280;53000;45.182;5.736;2023-08-12T11:37:49;99401.44;;;40.72;22.02
66196;BME280;53000;45.182;5.736;2023-08-12T11:40:16;99398.47;;;40.68;21.74
66196;BME280;53000;45.182;5.736;2023-08-12T11:42:44;99389.91;;;40.49;20.90
66196;BME280;53000;45.182;5.736;2023-08-12T11:45:16;99405.09;;;40.25;21.85
66196;BME280;53000;45.182;5.736;2023-08-12T11:47:42;99391.00;;;40.13;21.76
66196;BME280;53000;45.182;5.736;2023-08-12T11:50:10;99380.69;;;40.04;21.89
66196;BME280;53000;45.182;5.736;2023-08-12T11:52:37;99387.25;;;39.93;21.98
66196;BME280;53000;45.182;5.736;2023-08-12T11:55:03;99374.19;;;39.76;22.48
66196;BME280;53000;45.182;5.736;2023-08-12T11:57:29;99375.94;;;39.64;22.29
66196;BME280;53000;45.182;5.736;2023-08-12T12:00:05;99382.31;;;39.61;22.28
66196;BME280;53000;45.182;5.736;2023-08-12T12:02:38;99373.72;;;39.58;22.71
66196;BME280;53000;45.182;5.736;2023-08-12T12:05:11;99369.50;;;39.52;22.44
66196;BME280;53000;45.182;5.736;2023-08-12T12:07:36;99364.41;;;39.57;22.57
66196;BME280;53000;45.182;5.736;2023-08-12T12:10:02;99367.03;;;39.50;22.08
66196;BME280;53000;45.182;5.736;2023-08-12T12:12:27;99364.94;;;39.47;22.93
66196;BME280;53000;45.182;5.736;2023-08-12T12:14:53;99365.56;;;39.40;22.70
66196;BME280;53000;45.182;5.736;2023-08-12T12:17:22;99360.84;;;39.32;23.32
66196;BME280;53000;45.182;5.736;2023-08-12T12:19:54;99363.25;;;39.18;23.66
66196;BME280;53000;45.182;5.736;2023-08-12T12:22:26;99354.31;;;39.03;23.38
66196;BME280;53000;45.182;5.736;2023-08-12T12:24:52;99355.63;;;39.06;23.69
66196;BME280;53000;45.182;5.736;2023-08-12T12:27:18;99361.53;;;39.01;23.74
66196;BME280;53000;45.182;5.736;2023-08-12T12:29:43;99356.78;;;38.93;23.85
66196;BME280;53000;45.182;5.736;2023-08-12T12:32:09;99358.25;;;38.86;23.60
66196;BME280;53000;45.182;5.736;2023-08-12T12:34:35;99362.97;;;38.82;23.68
66196;BME280;53000;45.182;5.736;2023-08-12T12:37:00;99356.06;;;38.68;24.25
66196;BME280;53000;45.182;5.736;2023-08-12T12:39:26;99344.16;;;38.50;23.98
66196;BME280;53000;45.182;5.736;2023-08-12T12:41:51;99349.81;;;38.50;24.31
66196;BME280;53000;45.182;5.736;2023-08-12T12:44:17;99351.94;;;38.53;24.01
66196;BME280;53000;45.182;5.736;2023-08-12T12:46:42;99340.63;;;38.53;24.30
66196;BME280;53000;45.182;5.736;2023-08-12T12:49:07;99347.19;;;38.69;24.50
66196;BME280;53000;45.182;5.736;2023-08-12T12:51:33;99353.16;;;38.80;24.52
66196;BME280;53000;45.182;5.736;2023-08-12T12:53:58;99344.66;;;38.92;24.23
66196;BME280;53000;45.182;5.736;2023-08-12T12:56:23;99366.56;;;39.08;24.02
66196;BME280;53000;45.182;5.736;2023-08-12T12:58:49;99353.59;;;39.19;24.42
66196;BME280;53000;45.182;5.736;2023-08-12T13:01:14;99352.22;;;39.29;24.28
66196;BME280;53000;45.182;5.736;2023-08-12T13:03:39;99346.41;;;39.37;23.77